Terminal Aerodrome Forecast
Issued by NWS Cleveland, OH

Home | Current Version | Previous Version | Graphics & Text | Print | Product List | Glossary On
Versions: 1 2 3 4 5 6 7 8 9 10 11 12 13
694
FTUS41 KCLE 161130
TAFERI
TAF
KERI 161130Z 1612/1712 35009KT P6SM BKN035
      TEMPO 1612/1615 BKN030
     FM162000 32010KT P6SM SCT045
     FM170400 19004KT P6SM SCT060=

USA.gov is the U.S. government's official web portal to all federal, state and local government web resources and services.